Current Conditions
Partly Cloudy
Conditions



Pressure
1012.92 (hPa) - 29.91 (inHG)
Visibility

4.3 (miles) - 7.0 (km)
   Temperature
18  °C
64°F
17  °C
Dewpoint
94  %
 Humidity
   Wind Speed
3  mph
3  kts
5  km/h
1.3  m/s
   Wind Direction
Calm
Due North
   Airport Data
EGTK
Location Oxford (Kidlington) Airport 16 mi (26km)
Metar :EGTK 171950Z VRB03KT 7000 VCSH FEW008 SCT019 BKN032 18/17 Q1013
Thu 17th June 19:50 pm
   Raw Metar Info
Raw METAR is the most common format in the world for the transmission of observational weather data. It is highly standardized through the International Civil Aviation Organization (ICAO), which allows it to be understood throughout most of the world.
   API Info
Data Provided by
https://www.checkwx.com/weather/
   © Info
CSS/SVG/PHP scripts were developed by weather34.com for use in the weather34 template © 2015-2021

Guide Info provided by Metar-Wikipedia